福岡空港の過去48時間の天気

福岡空港 (Fukuoka)

現在時刻: 8/18 23:49 JST (8/18 14:49 UTC) 以下の時間は現地時間です。

過去48時間のMETAR気象情報
時間 風向 風速(m/s) 視程 気温(℃) 湿度(%) 気圧(hPa) 天気現象
18 23:30 3 10km以上 26 89 1008
18 23:00 南東 3 10km以上 26 89 1008
18 22:30 不定 1 10km以上 26 84 1008
18 22:00 北西 3 10km以上 27 84 1008
18 21:30 西北西 2 10km以上 28 74 1008
18 21:00 北西 3 10km以上 28 74 1008
18 20:30 西北西 3 10km以上 28 74 1008
18 20:00 西北西 4 10km以上 28 74 1008
18 19:30 西北西 3 10km以上 28 74 1008
18 19:00 西北西 4 10km以上 28 74 1008
18 18:30 北西 4 10km以上 28 74 1008
18 18:00 西北西 4 10km以上 29 70 1008
18 17:30 北西 6 10km以上 29 66 1008
18 17:00 北西 5 10km以上 29 70 1008
18 16:30 北西 5 10km以上 29 70 1007
18 16:00 北西 5 10km以上 30 66 1007
18 15:30 北西 5 10km以上 30 66 1007
18 15:00 北西 6 10km以上 31 66 1007
18 14:30 北北西 6 10km以上 30 70 1007
18 14:00 北西 5 10km以上 31 66 1007
18 13:30 北西 6 10km以上 31 66 1007
18 13:00 北西 5 10km以上 31 66 1007
18 12:30 北西 4 10km以上 32 63 1007
18 12:00 西北西 4 10km以上 31 62 1007
18 11:30 北北西 3 10km以上 31 59 1007
18 11:00 西北西 3 10km以上 30 66 1007
18 10:30 不定 1 10km以上 29 70 1008
18 10:00 2 10km以上 30 75 1008
18 09:30 2 10km以上 29 79 1008
18 09:00 南南東 2 10km以上 28 79 1008
18 08:30 南南東 3 10km以上 27 89 1008
18 08:00 不定 2 10km以上 26 89 1008
18 07:30 不定 2 10km以上 25 94 1007
18 07:00 南南東 3 10km以上 24 100 1007
18 06:30 不定 1 10km以上 24 94 1007
18 06:00 不定 1 10km以上 24 94 1007
18 05:30 南南東 3 10km以上 24 94 1007
18 05:00 3 10km以上 24 100 1007
18 04:49 3 10km以上 25 100 1007 弱い雨
18 04:41 南南東 3 10km以上 25 100 1007
18 04:27 南南東 2 10km以上 25 94 1007
18 04:18 南南東 1 3100m 25 94 1007 雨 もや
18 04:10 不定 1 4600m 25 94 1007 弱い雨 もや
18 04:00 南東 2 8000m 25 94 1007
18 03:47 不定 1 2200m 25 94 1006 雨 もや
18 03:41 不定 1 2200m 25 94 1007 雨 もや
18 03:30 東北東 2 3100m 25 94 1006 雨 もや
18 03:20 北東 2 4600m 25 94 1006 雨 もや
18 03:07 北北西 3 10km以上 25 94 1006
18 03:00 西北西 4 2700m 25 94 1006 強い雨 もや
18 02:50 西 3 4300m 25 94 1006 雨 もや
18 02:40 西南西 3 10km以上 25 94 1006 弱い雨
18 02:30 西 2 7000m 25 94 1006
18 02:18 西 4 2500m 25 94 1007 雨 もや
18 02:11 西北西 6 1700m 25 94 1007 強い雨 もや
18 02:00 北西 7 1200m 26 94 1007 強い雨 もや
18 01:30 不定 2 9000m 26 94 1006
18 01:00 3 10km以上 27 89 1006 弱い雨
18 00:30 南南東 5 10km以上 26 89 1006
18 00:00 南南東 3 10km以上 27 89 1007
17 23:30 南南東 3 10km以上 26 94 1007 弱い雨
17 23:00 南南東 3 10km以上 26 94 1007 弱い雨
17 22:30 南東 3 10km以上 26 94 1007 周辺でしゅう雨
17 22:00 南南東 5 10km以上 26 89 1007 周辺でしゅう雨
17 21:30 南東 6 10km以上 26 89 1007 周辺でしゅう雨
17 21:00 南南東 5 10km以上 26 89 1007 周辺でしゅう雨
17 20:30 南南東 6 10km以上 26 89 1007 周辺でしゅう雨
17 20:00 南南東 6 10km以上 25 94 1007 弱い雨
17 19:30 南東 6 10km以上 25 89 1007 弱い雨
17 19:00 南東 5 10km以上 25 89 1007 弱い雨
17 18:30 南東 6 10km以上 26 84 1007 弱い雨
17 18:00 南東 5 10km以上 26 84 1007 弱い雨
17 17:30 4 10km以上 26 84 1007
17 17:00 不定 1 10km以上 26 84 1007 弱い雨
17 16:39 北北東 3 10km以上 26 89 1007 弱い雨
17 16:30 北北西 7 10km以上 26 84 1007 弱い雨
17 16:00 南東 6 10km以上 26 89 1006 弱い雨
17 15:30 南南東 5 10km以上 26 89 1007 弱い雨
17 15:00 南南東 6 10km以上 26 89 1008 弱いしゅう雨
17 14:30 南東 7 10km以上 26 89 1008 弱いしゅう雨
17 14:00 南東 8 10km以上 25 94 1008 弱い雨
17 13:30 南東 8 10km以上 25 94 1007 弱い雨
17 13:00 南南東 8 10km以上 25 94 1007 弱い雨
17 12:30 南南東 4 10km以上 25 94 1008 弱い雨
17 12:00 南東 5 10km以上 25 89 1008 弱い雨
17 11:46 南東 6 10km以上 25 94 1009 弱い雨
17 11:30 南南東 4 10km以上 25 94 1009
17 11:24 南東 5 10km以上 25 94 1009
17 11:00 南東 6 10km以上 25 94 1009 弱い雷雨
17 10:43 南南東 6 6000m 24 100 1009 雷雨
17 10:30 6 4000m 25 94 1009 雷雨
17 10:19 南南東 5 4000m 25 94 1009 雷雨
17 10:05 西北西 5 1500m 26 94 1009 強い雷雨
17 10:00 西北西 4 4000m 26 94 1010 強いしゅう雨
17 09:47 3 10km以上 26 94 1009 雷雨
17 09:32 南南東 3 10km以上 26 94 1009 弱い雷雨
17 09:30 南南東 3 10km以上 26 94 1009 弱いしゅう雨
17 09:15 西北西 2 10km以上 26 94 1009 弱いしゅう雨
17 09:05 西北西 2 6000m 25 94 1009 しゅう雨
17 09:00 西北西 3 2500m 26 94 1009 しゅう雨
17 08:30 南南東 6 10km以上 26 94 1009 しゅう雨
17 08:00 南東 4 10km以上 26 94 1008 周辺でしゅう雨
17 07:30 南南東 5 10km以上 26 94 1008
17 07:00 東南東 3 10km以上 26 89 1008 周辺でしゅう雨
17 06:30 東南東 3 10km以上 26 89 1008 弱いしゅう雨
17 06:13 南東 4 10km以上 26 94 1008 周辺でしゅう雨
17 06:02 南東 3 10km以上 26 94 1008 弱い雷雨
17 06:00 東南東 3 10km以上 26 94 1008 弱いしゅう雨
17 05:40 東南東 3 10km以上 26 94 1008
17 05:30 東南東 3 10km以上 26 94 1008 弱い雨
17 05:15 南東 4 10km以上 26 94 1008 弱い雨
17 05:10 南東 4 1100m 26 94 1007 強い雨 もや
17 05:00 4 900m 26 94 1008 雨 霧
17 04:42 南南東 6 10km以上 26 94 1007
17 04:36 南南東 6 10km以上 26 94 1007 強い雨
17 04:30 南南東 5 900m 26 94 1007 強い雨 霧
17 04:18 南東 4 10km以上 26 94 1007
17 04:00 南東 4 10km以上 26 94 1007 弱い雨
17 03:47 南南東 3 10km以上 26 94 1007
17 03:30 南東 3 10km以上 26 94 1007
17 03:00 南東 4 10km以上 26 94 1007 弱い雨
17 02:30 南東 5 10km以上 26 94 1007
17 02:00 南東 7 10km以上 26 94 1007
17 01:30 南東 6 10km以上 26 94 1008
17 01:00 南南東 5 10km以上 27 89 1008
17 00:30 南東 5 10km以上 26 94 1008
17 00:08 南南東 6 10km以上 26 94 1008
17 00:00 南東 6 10km以上 27 89 1008 弱い雨
RJFF 181430Z AUTO 17006KT 9999 FEW022 26/24 Q1008 NOSIG RMK A2978
RJFF 181400Z AUTO 13005KT 9999 OVC022 26/24 Q1008 NOSIG RMK A2978
RJFF 181330Z VRB02KT 9999 FEW020 BKN025 BKN/// 26/23 Q1008 BECMG 15005KT RMK 1CU020 5CU025 A2979
RJFF 181300Z 31005KT 9999 FEW020 SCT030 BKN035 27/24 Q1008 BECMG 15005KT
RJFF 181230Z 30004KT 230V350 9999 FEW020 SCT025 BKN035 28/23 Q1008 BECMG 15005KT
RJFF 181200Z 31006KT 280V020 9999 FEW020 SCT030 BKN/// 28/23 Q1008 BECMG 15005KT
RJFF 181130Z 29005KT 200V350 9999 FEW020 SCT030 28/23 Q1008 BECMG 15005KT
RJFF 181100Z 30007KT 230V330 9999 FEW020 SCT030 BKN040 28/23 Q1008 NOSIG RMK 1CU020 4CU030 5CU040 A2979
RJFF 181030Z 29006KT 220V330 9999 FEW025 SCT030 BKN/// 28/23 Q1008 NOSIG
RJFF 181000Z 30008KT 9999 FEW025 SCT030 BKN/// 28/23 Q1008 NOSIG
RJFF 180930Z 31008KT 290V360 9999 FEW025 SCT030 BKN/// 28/23 Q1008 NOSIG RMK 1CU025 4CU030 A2977
RJFF 180900Z 30007KT 250V350 9999 FEW025 SCT030 BKN/// 29/23 Q1008 NOSIG RMK 1CU025 3CU030 A2977
RJFF 180830Z 31012KT 280V340 9999 FEW025 SCT030 BKN/// 29/22 Q1008 NOSIG
RJFF 180800Z 32010KT 290V360 9999 FEW025 SCT030 BKN040 29/23 Q1008 NOSIG RMK 1CU025 4CU030 5CU040 A2977
RJFF 180730Z 32009KT 290V350 9999 FEW025 SCT035 29/23 Q1007 NOSIG RMK 1CU025 3CU035 A2976
RJFF 180700Z 32009KT 270V360 9999 FEW025 SCT035 30/23 Q1007 NOSIG RMK 1CU025 3CU035 A2976
RJFF 180630Z 32010KT 280V350 9999 FEW025 30/23 Q1007 NOSIG RMK 1CU025 A2975
RJFF 180600Z 32011KT 280V350 9999 FEW025 SCT/// 31/24 Q1007 NOSIG RMK 1CU025 A2975
RJFF 180530Z 33012KT 9999 FEW025 SCT/// 30/24 Q1007 NOSIG
RJFF 180500Z 31010KT 280V350 9999 FEW025 BKN/// 31/24 Q1007 NOSIG RMK 1CU025 A2975
RJFF 180430Z 32012KT 9999 FEW025 BKN/// 31/24 Q1007 NOSIG
RJFF 180400Z 32010KT 9999 FEW025 BKN/// 31/24 Q1007 NOSIG
RJFF 180330Z 32008KT 290V350 9999 FEW025 BKN/// 32/24 Q1007 NOSIG
RJFF 180300Z 30008KT 260V360 9999 FEW025 SCT035 BKN/// 31/23 Q1007 NOSIG RMK 1CU025 3CU035 A2975
RJFF 180230Z 33006KT 270V360 9999 FEW025 SCT035 31/22 Q1007 NOSIG RMK 1CU025 3CU035 A2976
RJFF 180200Z 30005KT 250V350 9999 FEW020 SCT035 30/23 Q1007 NOSIG RMK 1CU020 4CU035 A2976
RJFF 180130Z VRB02KT 9999 FEW020 SCT030 29/23 Q1008 BECMG TL0230 31007KT RMK 1CU020 4CU030 A2977
RJFF 180100Z 17004KT 100V220 9999 FEW015 BKN020 30/25 Q1008 BECMG 31007KT
RJFF 180030Z 18003KT 100V250 9999 FEW010 SCT020 29/25 Q1008 BECMG 31007KT RMK 1ST010 4CU020 A2977
RJFF 180000Z 15003KT 110V200 9999 FEW010 SCT020 28/24 Q1008 BECMG 31007KT
RJFF 172330Z 15006KT 9999 FEW010 SCT/// 27/25 Q1008 BECMG 31007KT RMK 1ST010 A2977
RJFF 172300Z VRB03KT 9999 FEW010 26/24 Q1008 BECMG 29005KT
RJFF 172230Z VRB04KT 9999 FEW010 SCT015 25/24 Q1007 BECMG 29005KT
RJFF 172200Z 16005KT 9999 FEW010 SCT015 24/24 Q1007 BECMG 29005KT
RJFF 172130Z VRB02KT 9999 FEW008 SCT/// 24/23 Q1007 BECMG 16005KT RMK 1ST008 A2975
RJFF 172100Z VRB02KT 9999 FEW005 SCT070 BKN100 24/23 Q1007 BECMG 18005KT
RJFF 172030Z AUTO 16005KT 9999 FEW018 BKN060 //////TCU 24/23 Q1007 NOSIG RMK A2974 TCU 20KM SW MOV NE AND 30KM E-SE MOV E
RJFF 172000Z AUTO 18006KT 9999 FEW002 SCT026 BKN060 //////TCU 24/24 Q1007 BECMG 29006KT RMK A2974 TCU 5KM E-S MOV E
RJFF 171949Z AUTO 17005KT 9999 -RA FEW002 SCT005 BKN026 //////TCU 25/25 Q1007 RMK A2975 TCU OHD AND FM 25KM E TO 35KM SE MOV E
RJFF 171941Z AUTO 15006KT 9999 BKN002 BKN033 OVC050 //////TCU 25/25 Q1007 RMK A2975 TCU OHD AND FM 25KM E TO 35KM SE MOV E
RJFF 171927Z AUTO 16004KT 9999 BKN005 BKN008 BKN015 //////TCU 25/24 Q1007 RMK A2974 TCU E-OHD-W AND 40KM SE MOV E
RJFF 171918Z AUTO 16002KT 3100 RA BR BKN005 BKN010 BKN049 //////TCU 25/24 Q1007 RMK A2974 RI003 TCU OHD AND 5KM E-S MOV E
RJFF 171910Z AUTO VRB01KT 4600 -RA BR SCT005 BKN008 BKN012 //////TCU 25/24 Q1007 RMK A2974 TCU OHD AND 5KM E-S MOV E
RJFF 171900Z AUTO 13003KT 8000 RA BKN004 BKN013 BKN042 //////TCU 25/24 Q1007 BECMG 30006KT TEMPO 1500 +TSRA BR
RJFF 171847Z AUTO VRB02KT 2200 RA BR BKN003 BKN007 BKN009 //////CB 25/24 Q1006 RMK A2973 RI012 CB OHD MOV E TCU 20KM NE MOV SE
RJFF 171841Z AUTO VRB02KT 2200 RA BR BKN003 OVC035 //////CB 25/24 Q1007 RMK A2974 RI013 CB OHD MOV E TCU 20KM NE MOV SE
RJFF 171830Z AUTO 06004KT 030V110 3100 RA BR SCT003 BKN024 BKN028 //////CB 25/24 Q1006 BECMG 30006KT TEMPO 1500 +TSRA BR FEW005 BKN008 BKN015 FEW030CB
RJFF 171820Z AUTO 05003KT 010V070 4600 RA BR FEW003 SCT024 BKN029 //////CB 25/24 Q1006 RMK A2973 RI003 CB 20KM E-S MOV E TCU OHD MOV E
RJFF 171807Z AUTO 33005KT 300V010 9999 RA FEW003 SCT025 BKN036 //////CB 25/24 Q1006 RMK A2972 RI009 CB OHD MOV E
RJFF 171800Z AUTO 30007KT 270V340 2700 +RA BR FEW003 SCT005 BKN037 //////CB 25/24 Q1006 TEMPO 1500 +TSRA BR FEW005 BKN008 BKN015 FEW030CB RMK A2973 RI018 CB OHD MOV E
RJFF 171750Z AUTO 27005KT 220V310 4300 RA BR FEW007 SCT032 BKN040 //////CB 25/24 Q1006 RMK A2973 RI003 CB 5KM NE-S MOV E TCU OHD STNR
RJFF 171740Z AUTO 25005KT 200V300 9999 -RA FEW007 SCT027 BKN037 //////CB 25/24 Q1006 RMK A2972 CB OHD MOV E
RJFF 171730Z AUTO 26004KT 210V300 7000 RA FEW005 SCT027 BKN037 //////CB 25/24 Q1006 TEMPO 1500 +TSRA BR FEW005 BKN008 BKN015 FEW030CB
RJFF 171718Z AUTO 27008KT 240V310 2500 RA BR FEW006 SCT020 BKN032 //////CB 25/24 Q1007 RMK A2974 RI011 CB OHD AND 25KM SW MOV SE
RJFF 171711Z AUTO 29011KT 1700 R16/1500VP2000U +RA BR FEW002 SCT015 BKN017 //////CB 25/24 Q1007 RMK A2974 RI027 CB OHD AND 25KM SW MOV SE P/RR
RJFF 171700Z AUTO 31013KT 1200 R16/1300VP2000N +RA BR SCT002 BKN008 BKN010 //////CB 26/25 Q1007 TEMPO +TSRA BR
RJFF 171630Z AUTO VRB04KT 9000 RA BKN031 BKN038 OVC044 //////CB 26/25 Q1006 BECMG 29009KT TEMPO 3000 TSRA BR RMK A2971 RI005 CB 25KM NE AND 30KM W MOV E TCU ALL QUAD MOV UNKNOWN
RJFF 171600Z AUTO 17006KT 9999 -RA SCT031 BKN033 BKN045 //////CB 27/25 Q1006 TEMPO 3000 TSRA BR
RJFF 171530Z AUTO 15009KT 9999 SCT033 BKN036 BKN045 //////CB 26/24 Q1006 TEMPO 3000 TSRA BR RMK A2972 CB 10KM NW MOV NE
RJFF 171500Z AUTO 16006KT 9999 FEW032 SCT060 BKN080 //////TCU 27/25 Q1007 TEMPO 3000 TSRA BR RMK A2974 TCU 25KM N AND NW MOV E
RJFF 171430Z AUTO 15006KT 9999 -RA FEW031 BKN060 BKN070 //////TCU 26/25 Q1007 TEMPO 3000 TSRA BR
RJFF 171400Z AUTO 16006KT 9999 -RA BKN031 OVC035 //////TCU 26/25 Q1007 TEMPO 3000 TSRA BR
RJFF 171330Z 13005KT 9999 VCSH FEW008 SCT030 BKN040 26/25 Q1007 TEMPO 3000 TSRA BR RMK 1ST008 4CU030 6CU040 A2975
RJFF 171300Z 15009KT 9999 VCSH FEW008 SCT040 BKN080 26/24 Q1007 TEMPO 3000 TSRA BR RMK 1ST008 3CU040 6AC080 A2975
RJFF 171230Z 14012KT 9999 VCSH FEW008 SCT040 BKN080 26/24 Q1007 TEMPO 4000 -TSRA BR
RJFF 171200Z 15010KT 9999 VCSH FEW008 SCT100 BKN150 26/24 Q1007 TEMPO 4000 -TSRA BR
RJFF 171130Z 15012KT 9999 VCSH FEW008 SCT040 BKN120 26/24 Q1007 TEMPO 4000 -TSRA BR
RJFF 171100Z 15011KT 9999 -RA FEW008 SCT040 BKN120 25/24 Q1007 TEMPO 4000 -TSRA BR RMK 1ST008 4CU040 6AC120 A2974
RJFF 171030Z 14012KT 9999 -RA FEW008 SCT040 BKN120 25/23 Q1007 TEMPO 4000 -TSRA BR RMK 1ST008 3CU040 6AC120 A2974
RJFF 171000Z 13010KT 9999 -RA FEW008 SCT035 BKN150 25/23 Q1007 TEMPO 4000 -TSRA BR RMK 1ST008 3CU035 6AC150 A2974
RJFF 170930Z 14011KT 9999 -RA FEW008 SCT035 BKN120 26/23 Q1007 TEMPO 4000 -TSRA BR RMK 1ST008 3CU035 6AC120 A2974
RJFF 170900Z 14010KT 9999 -RA FEW008 SCT060 BKN100 26/23 Q1007 TEMPO 4000 TSRA BR RMK 1ST008 3SC060 6AC100 A2974
RJFF 170830Z 18007KT 9999 FEW008 SCT060 BKN130 26/23 Q1007 TEMPO 4000 TSRA BR RMK 1ST008 4SC060 6AC130 A2975
RJFF 170800Z VRB01KT 9999 -RA FEW008 SCT060 BKN100 26/23 Q1007 BECMG 16012KT TEMPO 4000 TSRA BR
RJFF 170739Z 03005KT 350V080 9999 -RA FEW008 SCT030 BKN100 26/24 Q1007 RMK 1ST008 3CU030 6AC100 A2974 P/RR
RJFF 170730Z 33014KT 9999 -RA FEW008 SCT080 BKN100 26/23 Q1007 BECMG 16012KT TEMPO FM0830 4000 TSRA BR
RJFF 170700Z 14012KT 9999 -RA FEW008 SCT070 BKN090 26/24 Q1006 TEMPO FM0830 4000 TSRA BR
RJFF 170630Z 15010KT 9999 -RA FEW008 SCT070 BKN090 26/24 Q1007 TEMPO FM0800 4000 TSRA BR RMK 1ST008 3AC070 6AC090 A2976
RJFF 170600Z 15011KT 9999 -SHRA FEW008 SCT035 BKN090 26/24 Q1008 NOSIG RMK 1ST008 3CU035 6AC090 A2977
RJFF 170530Z 14013KT 9999 -SHRA FEW008 SCT030 BKN040 26/24 Q1008 NOSIG RMK 1ST008 4CU030 6CU040 A2978
RJFF 170500Z 14015KT 9999 -RA FEW008 SCT070 BKN090 25/24 Q1008 NOSIG RMK 1ST008 3AC070 6AC090 A2977
RJFF 170430Z 14016KT 9999 -RA FEW005 SCT070 BKN100 25/24 Q1007 NOSIG RMK 1ST005 3AC070 6AC100 A2975
RJFF 170400Z 15016KT 9999 -RA FEW005 SCT080 BKN100 25/24 Q1007 TEMPO 3000 TSRA BR
RJFF 170330Z 15008KT 9999 -RA FEW005 SCT080 BKN100 25/24 Q1008 TEMPO 3000 TSRA BR
RJFF 170300Z 14010KT 9999 -RA FEW005 SCT080 BKN100 25/23 Q1008 TEMPO 3000 TSRA BR
RJFF 170246Z 14012KT 9999 -RA FEW005 SCT080 BKN100 25/24 Q1009 RMK 1ST005 3AC080 6AC100 A2979
RJFF 170230Z 15008KT 9999 RA FEW005 SCT080 BKN090 25/24 Q1009 TEMPO 3000 TSRA BR RMK 1ST005 3AC080 6AC090 A2980
RJFF 170224Z 14009KT 9999 RA FEW005 SCT080 BKN100 25/24 Q1009 RMK 1ST005 3AC080 6AC100 A2980 MOD TURB OBS AT 0208Z OVER GUSPA BTN FL150 AND 13000FT IN DES MOV NE A320
RJFF 170200Z 14012KT 9999 -TSRA FEW005 FEW030CB SCT040 BKN100 25/24 Q1009 TEMPO 3000 TSRA BR
RJFF 170143Z 16012KT 6000 TSRA FEW005 SCT020 FEW030CB BKN040 24/24 Q1009 RMK 1ST005 3CU020 1CB030 5CU040 A2982 FBL TS 10KM SE-S MOV NE
RJFF 170130Z 17011KT 4000 TSRA FEW005 SCT020 FEW030CB BKN040 25/24 Q1009 TEMPO 3000 TSRA BR
RJFF 170119Z 16010KT 120V180 4000 TSRA FEW005 SCT015 FEW030CB BKN040 25/24 Q1009 RMK 1ST005 3CU015 2CB030 5CU040 A2982 FBL TS 5KM SE-SW MOV NE
RJFF 170105Z 29010KT 220V320 1500 R16/2000N +TSRA FEW005 SCT015 BKN030CB 26/25 Q1009 RMK 1ST005 3CU015 5CB030 A2982 FBL TS OHD MOV NE
RJFF 170100Z 29007KT 220V330 4000 +SHRA FEW005 SCT015 SCT030CB BKN040 26/25 Q1010 BECMG 15008KT TEMPO 3000 TSRA BR
RJFF 170047Z VRB06KT 9999 TSRA FEW005 SCT015 FEW030CB BKN040 26/25 Q1009 RMK 1ST005 3CU015 2CB030 5CU040 A2982 FBL TS 10KM SW-N MOV NE
RJFF 170032Z 15005KT 9999 -TSRA FEW005 SCT015 FEW030CB BKN040 26/25 Q1009 RMK 1ST005 3CU015 1CB030 5CU040 A2981 FBL TS 15KM W-NW MOV NE
RJFF 170030Z 15005KT 9999 -SHRA FEW005 SCT015 FEW030CB BKN040 26/25 Q1009 TEMPO 3000 TSRA BR RMK 1ST005 3CU015 1CB030 5CU040 A2981 CB 15KM W-NW MOV NE
RJFF 170015Z 29003KT 180V360 9999 -SHRA FEW005 SCT010 BKN020 26/25 Q1009 RMK 1ST005 3ST010 5CU020 A2981
RJFF 170005Z 29004KT 250V320 6000 SHRA FEW005 SCT020 FEW030CB BKN035 25/24 Q1009 RMK 1ST005 3CU020 1CB030 5CU035 A2981 CB 5KM E MOV NE
RJFF 170000Z 29006KT 250V310 2500 SHRA FEW005 SCT010 BKN030CB 26/25 Q1009 TEMPO TSRA BR RMK 1ST005 3ST010 5CB030 A2982 CB OHD MOV NE
RJFF 162330Z 15012KT 9999 SHRA FEW005 FEW030CB SCT040 BKN050 26/25 Q1009 TEMPO 3000 TSRA BR RMK 1ST005 1CB030 3CU040 5SC050 A2980 CB 5KM NW-N MOV NE
RJFF 162300Z 13007KT 9999 VCSH FEW002 FEW030CB SCT040 BKN050 26/25 Q1008 TEMPO 3000 TSRA BR
RJFF 162230Z 15010KT 9999 FEW002 SCT040 BKN050 26/25 Q1008 TEMPO 3000 TSRA BR RMK 1ST002 4CU040 5SC050 A2979
RJFF 162200Z 11006KT 9999 VCSH FEW002 SCT045 BKN110 26/24 Q1008 TEMPO 4000 -TSRA BR
RJFF 162130Z 11005KT 070V150 9999 -SHRA FEW003 SCT040 BKN110 26/24 Q1008 TEMPO 4000 -TSRA BR
RJFF 162113Z 13008KT 9999 VCSH FEW003 SCT040 BKN060 26/25 Q1008 RMK 1ST003 3CU040 5SC060 A2977
RJFF 162102Z 13006KT 9999 -TSRA FEW005 FEW030CB SCT040 BKN050 26/25 Q1008 RMK 1ST005 1CB030 3CU040 5SC050 A2978 FBL TS 20KM SE MOV NE
RJFF 162100Z 12005KT 090V150 9999 -SHRA FEW005 FEW030CB SCT040 BKN050 26/25 Q1008 TEMPO 4000 -TSRA BR
RJFF 162040Z AUTO 11006KT 080V140 9999 FEW031 BKN050 BKN060 //////CB 26/25 Q1008 RMK A2978 CB 10KM S-SW MOV NE AND 40KM SE MOV UNKNOWN TCU 10KM NE MOV NE
RJFF 162030Z AUTO 11005KT 9999 -RA FEW017 BKN050 BKN060 //////CB 26/25 Q1008 TEMPO 4000 -TSRA BR
RJFF 162015Z AUTO 14008KT 9999 -RA FEW010 SCT034 BKN048 //////CB 26/25 Q1008 RMK A2977 CB 15KM SE-SW MOV NE TCU OHD MOV NE
RJFF 162010Z AUTO 14008KT 110V170 1100 R16/P2000N +RA BR FEW010 SCT034 BKN041 //////CB 26/25 Q1007 RMK A2976 RI015 CB 15KM SE-SW MOV NE TCU OHD MOV NE
RJFF 162000Z AUTO 17007KT 130V190 0900 R16/2000N RA FG FEW010 SCT037 BKN041 //////CB 26/25 Q1008 TEMPO TSRA BR RMK A2977 RI006 CB OHD MOV NE
RJFF 161942Z AUTO 15012KT 9999 R16/P2000N FEW008 SCT037 BKN044 //////CB 26/25 Q1007 RMK A2975 CB OHD MOV NE
RJFF 161936Z AUTO 15012KT 9999 R16/2000N +RA FEW008 SCT020 BKN050 //////TCU 26/25 Q1007 RMK A2976 RI033 TCU OHD MOV NE
RJFF 161930Z AUTO 15010KT 0900 R16/2000N +RA FG FEW010 SCT037 BKN050 //////TCU 26/25 Q1007 TEMPO TSRA BR
RJFF 161918Z AUTO 14008KT 9999 RA FEW010 BKN050 BKN060 //////TCU 26/25 Q1007 RMK A2975 RI007 TCU FM 40KM S TO 30KM SW MOV NE
RJFF 161900Z AUTO 14008KT 9999 -RA FEW009 BKN050 OVC100 //////CB 26/25 Q1007 TEMPO 4000 -TSRA BR
RJFF 161847Z AUTO 15006KT 9999 FEW009 SCT036 BKN050 //////CB 26/25 Q1007 RMK A2974 CB 30KM SW MOV NE
RJFF 161830Z AUTO 14006KT 9999 FEW036 SCT060 BKN090 //////TCU 26/25 Q1007 TEMPO 4000 -TSRA BR RMK A2974 TCU 15KM SW MOV NE
RJFF 161800Z AUTO 14008KT 9999 -RA SCT060 BKN070 BKN080 //////TCU 26/25 Q1007 TEMPO 4000 -TSRA BR
RJFF 161730Z AUTO 14009KT 9999 FEW034 SCT060 BKN070 //////CB 26/25 Q1007 TEMPO FM1800 4000 -TSRA BR
RJFF 161700Z AUTO 14013KT 9999 FEW040 SCT044 BKN050 //////CB 26/25 Q1007 TEMPO FM1800 4000 -TSRA BR
RJFF 161630Z AUTO 14012KT 9999 FEW011 BKN050 BKN060 //////CB 26/25 Q1008 TEMPO FM1800 4000 -TSRA BR RMK A2977 CB 30KM NW MOV E
RJFF 161600Z AUTO 15009KT 9999 FEW042 SCT048 BKN060 //////CB 27/25 Q1008 NOSIG RMK A2977 CB 35KM N MOV NE
RJFF 161530Z AUTO 14010KT 9999 FEW028 SCT046 BKN050 //////CB 26/25 Q1008 NOSIG
RJFF 161508Z AUTO 15011KT 9999 FEW039 SCT041 BKN044 //////TCU 26/25 Q1008 RMK A2977 TCU 30KM W MOV NE
RJFF 161500Z AUTO 14012KT 9999 -RA FEW039 SCT045 BKN046 //////TCU 27/25 Q1008 NOSIG